sensor_id;sensor_type;location;lat;lon;timestamp;pressure;altitude;pressure_sealevel;temperature
19568;BMP280;9930;49.240;8.548;2024-01-30T00:00:33;101907.88;;;6.58
19568;BMP280;9930;49.240;8.548;2024-01-30T00:02:59;101915.47;;;6.58
19568;BMP280;9930;49.240;8.548;2024-01-30T00:05:24;101891.19;;;6.49
19568;BMP280;9930;49.240;8.548;2024-01-30T00:07:50;101909.28;;;6.54
19568;BMP280;9930;49.240;8.548;2024-01-30T00:10:16;101909.41;;;6.56
19568;BMP280;9930;49.240;8.548;2024-01-30T00:12:42;101913.56;;;6.55
19568;BMP280;9930;49.240;8.548;2024-01-30T00:15:12;101899.66;;;6.50
19568;BMP280;9930;49.240;8.548;2024-01-30T00:17:38;101910.03;;;6.53
19568;BMP280;9930;49.240;8.548;2024-01-30T00:20:07;101915.00;;;6.52
19568;BMP280;9930;49.240;8.548;2024-01-30T00:22:37;101902.72;;;6.46
19568;BMP280;9930;49.240;8.548;2024-01-30T00:25:06;101910.56;;;6.49
19568;BMP280;9930;49.240;8.548;2024-01-30T00:27:34;101909.81;;;6.50
19568;BMP280;9930;49.240;8.548;2024-01-30T00:30:00;101900.72;;;6.42
19568;BMP280;9930;49.240;8.548;2024-01-30T00:32:36;101894.00;;;6.42
19568;BMP280;9930;49.240;8.548;2024-01-30T00:35:06;101913.50;;;6.43
19568;BMP280;9930;49.240;8.548;2024-01-30T00:37:35;101911.50;;;6.39
19568;BMP280;9930;49.240;8.548;2024-01-30T00:40:03;101908.09;;;6.39
19568;BMP280;9930;49.240;8.548;2024-01-30T00:42:33;101916.03;;;6.43
19568;BMP280;9930;49.240;8.548;2024-01-30T00:45:00;101911.16;;;6.35
19568;BMP280;9930;49.240;8.548;2024-01-30T00:47:27;101928.47;;;6.40
19568;BMP280;9930;49.240;8.548;2024-01-30T00:49:56;101909.25;;;6.32
19568;BMP280;9930;49.240;8.548;2024-01-30T00:52:25;101922.41;;;6.38
19568;BMP280;9930;49.240;8.548;2024-01-30T00:54:53;101926.47;;;6.36
19568;BMP280;9930;49.240;8.548;2024-01-30T00:57:18;101910.53;;;6.27
19568;BMP280;9930;49.240;8.548;2024-01-30T00:59:44;101914.09;;;6.29
19568;BMP280;9930;49.240;8.548;2024-01-30T01:02:10;101919.03;;;6.28
19568;BMP280;9930;49.240;8.548;2024-01-30T01:04:35;101920.44;;;6.24
19568;BMP280;9930;49.240;8.548;2024-01-30T01:07:07;101929.41;;;6.31
19568;BMP280;9930;49.240;8.548;2024-01-30T01:09:35;101919.56;;;6.24
19568;BMP280;9930;49.240;8.548;2024-01-30T01:12:05;101914.50;;;6.24
19568;BMP280;9930;49.240;8.548;2024-01-30T01:14:35;101922.44;;;6.28
19568;BMP280;9930;49.240;8.548;2024-01-30T01:17:08;101924.88;;;6.27
19568;BMP280;9930;49.240;8.548;2024-01-30T01:19:34;101913.25;;;6.18
19568;BMP280;9930;49.240;8.548;2024-01-30T01:22:03;101925.50;;;6.24
19568;BMP280;9930;49.240;8.548;2024-01-30T01:24:32;101929.69;;;6.24
19568;BMP280;9930;49.240;8.548;2024-01-30T01:26:59;101919.31;;;6.21
19568;BMP280;9930;49.240;8.548;2024-01-30T01:29:25;101929.56;;;6.22
19568;BMP280;9930;49.240;8.548;2024-01-30T01:32:02;101926.03;;;6.20
19568;BMP280;9930;49.240;8.548;2024-01-30T01:34:37;101920.84;;;6.18
19568;BMP280;9930;49.240;8.548;2024-01-30T01:37:03;101916.53;;;6.17
19568;BMP280;9930;49.240;8.548;2024-01-30T01:39:29;101914.66;;;6.15
19568;BMP280;9930;49.240;8.548;2024-01-30T01:41:59;101918.06;;;6.15
19568;BMP280;9930;49.240;8.548;2024-01-30T01:44:25;101902.38;;;6.09
19568;BMP280;9930;49.240;8.548;2024-01-30T01:46:52;101901.38;;;6.07
19568;BMP280;9930;49.240;8.548;2024-01-30T01:49:20;101901.13;;;6.04
19568;BMP280;9930;49.240;8.548;2024-01-30T01:51:47;101892.53;;;6.02
19568;BMP280;9930;49.240;8.548;2024-01-30T01:54:16;101897.59;;;6.02
19568;BMP280;9930;49.240;8.548;2024-01-30T01:56:45;101900.38;;;6.05
19568;BMP280;9930;49.240;8.548;2024-01-30T01:59:10;101903.91;;;6.07
19568;BMP280;9930;49.240;8.548;2024-01-30T02:01:37;101905.06;;;6.01
19568;BMP280;9930;49.240;8.548;2024-01-30T02:04:03;101894.56;;;5.96
19568;BMP280;9930;49.240;8.548;2024-01-30T02:06:36;101882.19;;;5.89
19568;BMP280;9930;49.240;8.548;2024-01-30T02:09:06;101894.44;;;5.95
19568;BMP280;9930;49.240;8.548;2024-01-30T02:11:35;101898.09;;;5.98
19568;BMP280;9930;49.240;8.548;2024-01-30T02:14:07;101890.91;;;5.93
19568;BMP280;9930;49.240;8.548;2024-01-30T02:16:33;101901.41;;;5.97
19568;BMP280;9930;49.240;8.548;2024-01-30T02:18:59;101902.94;;;5.95
19568;BMP280;9930;49.240;8.548;2024-01-30T02:21:27;101899.50;;;5.95
19568;BMP280;9930;49.240;8.548;2024-01-30T02:23:56;101887.09;;;5.88
19568;BMP280;9930;49.240;8.548;2024-01-30T02:26:28;101898.50;;;5.93
19568;BMP280;9930;49.240;8.548;2024-01-30T02:28:54;101896.84;;;5.93
19568;BMP280;9930;49.240;8.548;2024-01-30T02:31:25;101899.38;;;5.93
19568;BMP280;9930;49.240;8.548;2024-01-30T02:33:50;101900.28;;;5.94
19568;BMP280;9930;49.240;8.548;2024-01-30T02:36:18;101889.38;;;5.84
19568;BMP280;9930;49.240;8.548;2024-01-30T02:38:44;101908.50;;;5.91
19568;BMP280;9930;49.240;8.548;2024-01-30T02:41:11;101905.22;;;5.92
19568;BMP280;9930;49.240;8.548;2024-01-30T02:43:37;101902.44;;;5.89
19568;BMP280;9930;49.240;8.548;2024-01-30T02:46:09;101906.75;;;5.90
19568;BMP280;9930;49.240;8.548;2024-01-30T02:48:35;101906.59;;;5.89
19568;BMP280;9930;49.240;8.548;2024-01-30T02:51:06;101900.16;;;5.82
19568;BMP280;9930;49.240;8.548;2024-01-30T02:53:38;101910.66;;;5.86
19568;BMP280;9930;49.240;8.548;2024-01-30T02:56:08;101900.66;;;5.78
19568;BMP280;9930;49.240;8.548;2024-01-30T02:58:39;101897.25;;;5.77
19568;BMP280;9930;49.240;8.548;2024-01-30T03:01:05;101912.69;;;5.80
19568;BMP280;9930;49.240;8.548;2024-01-30T03:03:33;101906.72;;;5.80
19568;BMP280;9930;49.240;8.548;2024-01-30T03:06:03;101883.97;;;5.70
19568;BMP280;9930;49.240;8.548;2024-01-30T03:08:29;101894.84;;;5.69
19568;BMP280;9930;49.240;8.548;2024-01-30T03:10:57;101892.56;;;5.72
19568;BMP280;9930;49.240;8.548;2024-01-30T03:13:22;101900.53;;;5.76
19568;BMP280;9930;49.240;8.548;2024-01-30T03:15:55;101901.19;;;5.74
19568;BMP280;9930;49.240;8.548;2024-01-30T03:18:23;101902.94;;;5.75
19568;BMP280;9930;49.240;8.548;2024-01-30T03:20:48;101894.47;;;5.74
19568;BMP280;9930;49.240;8.548;2024-01-30T03:23:14;101901.06;;;5.72
19568;BMP280;9930;49.240;8.548;2024-01-30T03:25:40;101890.56;;;5.68
19568;BMP280;9930;49.240;8.548;2024-01-30T03:28:06;101893.09;;;5.68
19568;BMP280;9930;49.240;8.548;2024-01-30T03:30:34;101909.53;;;5.73
19568;BMP280;9930;49.240;8.548;2024-01-30T03:33:03;101905.34;;;5.73
19568;BMP280;9930;49.240;8.548;2024-01-30T03:35:29;101902.69;;;5.72
19568;BMP280;9930;49.240;8.548;2024-01-30T03:37:55;101901.94;;;5.73
19568;BMP280;9930;49.240;8.548;2024-01-30T03:40:25;101901.94;;;5.73
19568;BMP280;9930;49.240;8.548;2024-01-30T03:42:50;101880.69;;;5.61
19568;BMP280;9930;49.240;8.548;2024-01-30T03:45:16;101898.53;;;5.72
19568;BMP280;9930;49.240;8.548;2024-01-30T03:47:44;101886.00;;;5.64
19568;BMP280;9930;49.240;8.548;2024-01-30T03:50:15;101900.16;;;5.72
19568;BMP280;9930;49.240;8.548;2024-01-30T03:52:43;101906.13;;;5.72
19568;BMP280;9930;49.240;8.548;2024-01-30T03:55:08;101900.16;;;5.72
19568;BMP280;9930;49.240;8.548;2024-01-30T03:57:36;101892.84;;;5.65
19568;BMP280;9930;49.240;8.548;2024-01-30T04:00:03;101901.69;;;5.70
19568;BMP280;9930;49.240;8.548;2024-01-30T04:02:30;101892.09;;;5.66
19568;BMP280;9930;49.240;8.548;2024-01-30T04:04:56;101907.50;;;5.69
19568;BMP280;9930;49.240;8.548;2024-01-30T04:07:21;101893.47;;;5.62
19568;BMP280;9930;49.240;8.548;2024-01-30T04:09:49;101900.44;;;5.65
19568;BMP280;9930;49.240;8.548;2024-01-30T04:12:17;101909.91;;;5.67
19568;BMP280;9930;49.240;8.548;2024-01-30T04:14:43;101908.16;;;5.66
19568;BMP280;9930;49.240;8.548;2024-01-30T04:17:12;101888.16;;;5.59
19568;BMP280;9930;49.240;8.548;2024-01-30T04:19:40;101904.75;;;5.66
19568;BMP280;9930;49.240;8.548;2024-01-30T04:22:08;101901.31;;;5.65
19568;BMP280;9930;49.240;8.548;2024-01-30T04:24:37;101892.47;;;5.60
19568;BMP280;9930;49.240;8.548;2024-01-30T04:27:06;101889.81;;;5.59
19568;BMP280;9930;49.240;8.548;2024-01-30T04:29:33;101901.19;;;5.64
19568;BMP280;9930;49.240;8.548;2024-01-30T04:31:59;101899.44;;;5.63
19568;BMP280;9930;49.240;8.548;2024-01-30T04:34:25;101884.38;;;5.54
19568;BMP280;9930;49.240;8.548;2024-01-30T04:36:51;101891.34;;;5.57
19568;BMP280;9930;49.240;8.548;2024-01-30T04:39:19;101895.50;;;5.56
19568;BMP280;9930;49.240;8.548;2024-01-30T04:41:47;101888.44;;;5.52
19568;BMP280;9930;49.240;8.548;2024-01-30T04:44:14;101906.78;;;5.60
19568;BMP280;9930;49.240;8.548;2024-01-30T04:46:40;101894.38;;;5.52
19568;BMP280;9930;49.240;8.548;2024-01-30T04:49:05;101907.66;;;5.60
19568;BMP280;9930;49.240;8.548;2024-01-30T04:51:36;101907.53;;;5.59
19568;BMP280;9930;49.240;8.548;2024-01-30T04:54:08;101910.94;;;5.59
19568;BMP280;9930;49.240;8.548;2024-01-30T04:56:36;101902.09;;;5.54
19568;BMP280;9930;49.240;8.548;2024-01-30T04:59:03;101896.66;;;5.49
19568;BMP280;9930;49.240;8.548;2024-01-30T05:01:31;101901.72;;;5.49
19568;BMP280;9930;49.240;8.548;2024-01-30T05:03:58;101919.19;;;5.57
19568;BMP280;9930;49.240;8.548;2024-01-30T05:06:27;101904.38;;;5.51
19568;BMP280;9930;49.240;8.548;2024-01-30T05:08:55;101915.75;;;5.56
19568;BMP280;9930;49.240;8.548;2024-01-30T05:11:21;101905.00;;;5.48
19568;BMP280;9930;49.240;8.548;2024-01-30T05:13:49;101914.88;;;5.56
19568;BMP280;9930;49.240;8.548;2024-01-30T05:16:14;101914.88;;;5.56
19568;BMP280;9930;49.240;8.548;2024-01-30T05:18:43;101917.28;;;5.54
19568;BMP280;9930;49.240;8.548;2024-01-30T05:21:10;101922.34;;;5.54
19568;BMP280;9930;49.240;8.548;2024-01-30T05:23:36;101929.19;;;5.55
19568;BMP280;9930;49.240;8.548;2024-01-30T05:26:06;101923.22;;;5.54
19568;BMP280;9930;49.240;8.548;2024-01-30T05:28:34;101922.34;;;5.54
19568;BMP280;9930;49.240;8.548;2024-01-30T05:31:00;101898.44;;;5.40
19568;BMP280;9930;49.240;8.548;2024-01-30T05:33:26;101920.56;;;5.53
19568;BMP280;9930;49.240;8.548;2024-01-30T05:35:54;101920.44;;;5.51
19568;BMP280;9930;49.240;8.548;2024-01-30T05:38:20;101926.41;;;5.52
19568;BMP280;9930;49.240;8.548;2024-01-30T05:40:46;101914.13;;;5.46
19568;BMP280;9930;49.240;8.548;2024-01-30T05:43:12;101930.56;;;5.51
19568;BMP280;9930;49.240;8.548;2024-01-30T05:45:40;101932.22;;;5.51
19568;BMP280;9930;49.240;8.548;2024-01-30T05:48:05;101923.38;;;5.46
19568;BMP280;9930;49.240;8.548;2024-01-30T05:50:33;101932.09;;;5.49
19568;BMP280;9930;49.240;8.548;2024-01-30T05:52:59;101927.28;;;5.42
19568;BMP280;9930;49.240;8.548;2024-01-30T05:55:25;101942.22;;;5.49
19568;BMP280;9930;49.240;8.548;2024-01-30T05:57:51;101937.16;;;5.49
19568;BMP280;9930;49.240;8.548;2024-01-30T06:00:18;101926.28;;;5.40
19568;BMP280;9930;49.240;8.548;2024-01-30T06:02:43;101937.91;;;5.48
19568;BMP280;9930;49.240;8.548;2024-01-30T06:05:09;101940.31;;;5.47
19568;BMP280;9930;49.240;8.548;2024-01-30T06:07:35;101942.97;;;5.48
19568;BMP280;9930;49.240;8.548;2024-01-30T06:10:09;101924.50;;;5.39
19568;BMP280;9930;49.240;8.548;2024-01-30T06:12:39;101937.78;;;5.47
19568;BMP280;9930;49.240;8.548;2024-01-30T06:15:06;101931.34;;;5.40
19568;BMP280;9930;49.240;8.548;2024-01-30T06:17:33;101937.41;;;5.42
19568;BMP280;9930;49.240;8.548;2024-01-30T06:19:59;101946.38;;;5.49
19568;BMP280;9930;49.240;8.548;2024-01-30T06:22:27;101936.00;;;5.46
19568;BMP280;9930;49.240;8.548;2024-01-30T06:24:53;101941.06;;;5.46
19568;BMP280;9930;49.240;8.548;2024-01-30T06:27:21;101947.91;;;5.47
19568;BMP280;9930;49.240;8.548;2024-01-30T06:29:49;101940.31;;;5.47
19568;BMP280;9930;49.240;8.548;2024-01-30T06:32:19;101942.84;;;5.47
19568;BMP280;9930;49.240;8.548;2024-01-30T06:34:47;101936.41;;;5.40
19568;BMP280;9930;49.240;8.548;2024-01-30T06:37:15;101941.97;;;5.46
19568;BMP280;9930;49.240;8.548;2024-01-30T06:39:40;101930.31;;;5.38
19568;BMP280;9930;49.240;8.548;2024-01-30T06:42:08;101941.97;;;5.46
19568;BMP280;9930;49.240;8.548;2024-01-30T06:44:35;101927.03;;;5.39
19568;BMP280;9930;49.240;8.548;2024-01-30T06:47:04;101928.69;;;5.39
19568;BMP280;9930;49.240;8.548;2024-01-30T06:49:30;101936.78;;;5.45
19568;BMP280;9930;49.240;8.548;2024-01-30T06:51:58;101930.31;;;5.38
19568;BMP280;9930;49.240;8.548;2024-01-30T06:54:25;101934.13;;;5.43
19568;BMP280;9930;49.240;8.548;2024-01-30T06:56:51;101947.78;;;5.45
19568;BMP280;9930;49.240;8.548;2024-01-30T06:59:21;101950.31;;;5.45
19568;BMP280;9930;49.240;8.548;2024-01-30T07:01:47;101945.38;;;5.47
19568;BMP280;9930;49.240;8.548;2024-01-30T07:04:12;101944.50;;;5.46
19568;BMP280;9930;49.240;8.548;2024-01-30T07:06:38;101938.03;;;5.40
19568;BMP280;9930;49.240;8.548;2024-01-30T07:09:05;101940.06;;;5.44
19568;BMP280;9930;49.240;8.548;2024-01-30T07:11:34;101956.50;;;5.49
19568;BMP280;9930;49.240;8.548;2024-01-30T07:14:08;101945.63;;;5.50
19568;BMP280;9930;49.240;8.548;2024-01-30T07:16:37;101955.75;;;5.50
19568;BMP280;9930;49.240;8.548;2024-01-30T07:19:04;101953.22;;;5.50
19568;BMP280;9930;49.240;8.548;2024-01-30T07:21:32;101945.25;;;5.45
19568;BMP280;9930;49.240;8.548;2024-01-30T07:23:59;101952.59;;;5.52
19568;BMP280;9930;49.240;8.548;2024-01-30T07:26:24;101952.72;;;5.54
19568;BMP280;9930;49.240;8.548;2024-01-30T07:28:53;101962.06;;;5.55
19568;BMP280;9930;49.240;8.548;2024-01-30T07:31:18;101945.63;;;5.50
19568;BMP280;9930;49.240;8.548;2024-01-30T07:33:46;101942.97;;;5.48
19568;BMP280;9930;49.240;8.548;2024-01-30T07:36:12;101944.25;;;5.53
19568;BMP280;9930;49.240;8.548;2024-01-30T07:38:42;101949.19;;;5.52
19568;BMP280;9930;49.240;8.548;2024-01-30T07:41:08;101955.88;;;5.62
19568;BMP280;9930;49.240;8.548;2024-01-30T07:43:39;101952.59;;;5.63
19568;BMP280;9930;49.240;8.548;2024-01-30T07:46:06;101943.84;;;5.59
19568;BMP280;9930;49.240;8.548;2024-01-30T07:48:33;101953.72;;;5.66
19568;BMP280;9930;49.240;8.548;2024-01-30T07:51:00;101932.84;;;5.59
19568;BMP280;9930;49.240;8.548;2024-01-30T07:53:25;101949.91;;;5.71
19568;BMP280;9930;49.240;8.548;2024-01-30T07:55:52;101953.59;;;5.75
19568;BMP280;9930;49.240;8.548;2024-01-30T07:58:18;101955.59;;;5.79
19568;BMP280;9930;49.240;8.548;2024-01-30T08:00:44;101961.81;;;5.82
19568;BMP280;9930;49.240;8.548;2024-01-30T08:03:10;101940.91;;;5.75
19568;BMP280;9930;49.240;8.548;2024-01-30T08:05:36;101964.09;;;5.90
19568;BMP280;9930;49.240;8.548;2024-01-30T08:08:09;101966.25;;;5.95
19568;BMP280;9930;49.240;8.548;2024-01-30T08:10:36;101969.28;;;6.01
19568;BMP280;9930;49.240;8.548;2024-01-30T08:13:04;101961.16;;;6.05
19568;BMP280;9930;49.240;8.548;2024-01-30T08:15:37;101967.47;;;6.10
19568;BMP280;9930;49.240;8.548;2024-01-30T08:18:06;101963.28;;;6.11
19568;BMP280;9930;49.240;8.548;2024-01-30T08:20:36;101960.38;;;6.16
19568;BMP280;9930;49.240;8.548;2024-01-30T08:23:05;101965.03;;;6.22
19568;BMP280;9930;49.240;8.548;2024-01-30T08:25:32;101978.94;;;6.37
19568;BMP280;9930;49.240;8.548;2024-01-30T08:28:09;101960.81;;;6.33
19568;BMP280;9930;49.240;8.548;2024-01-30T08:30:37;101979.00;;;6.49
19568;BMP280;9930;49.240;8.548;2024-01-30T08:33:05;101978.72;;;6.56
19568;BMP280;9930;49.240;8.548;2024-01-30T08:35:30;101975.66;;;6.60
19568;BMP280;9930;49.240;8.548;2024-01-30T08:37:59;101966.53;;;6.62
19568;BMP280;9930;49.240;8.548;2024-01-30T08:40:25;101977.63;;;6.74
19568;BMP280;9930;49.240;8.548;2024-01-30T08:42:51;101977.47;;;6.83
19568;BMP280;9930;49.240;8.548;2024-01-30T08:45:16;101969.19;;;6.86
19568;BMP280;9930;49.240;8.548;2024-01-30T08:47:42;101981.28;;;7.00
19568;BMP280;9930;49.240;8.548;2024-01-30T08:50:10;101984.41;;;7.07
19568;BMP280;9930;49.240;8.548;2024-01-30T08:52:36;101981.47;;;7.13
19568;BMP280;9930;49.240;8.548;2024-01-30T08:55:09;101974.84;;;7.15
19568;BMP280;9930;49.240;8.548;2024-01-30T08:57:38;101979.50;;;7.21
19568;BMP280;9930;49.240;8.548;2024-01-30T09:00:07;101982.84;;;7.31
19568;BMP280;9930;49.240;8.548;2024-01-30T09:02:35;101978.25;;;7.37
19568;BMP280;9930;49.240;8.548;2024-01-30T09:05:04;101976.94;;;7.42
19568;BMP280;9930;49.240;8.548;2024-01-30T09:07:29;101978.94;;;7.46
19568;BMP280;9930;49.240;8.548;2024-01-30T09:09:55;101974.09;;;7.50
19568;BMP280;9930;49.240;8.548;2024-01-30T09:12:25;101965.47;;;7.47
19568;BMP280;9930;49.240;8.548;2024-01-30T09:14:51;101975.66;;;7.59
19568;BMP280;9930;49.240;8.548;2024-01-30T09:17:17;101962.72;;;7.56
19568;BMP280;9930;49.240;8.548;2024-01-30T09:19:46;101971.03;;;7.65
19568;BMP280;9930;49.240;8.548;2024-01-30T09:22:11;101979.75;;;7.69
19568;BMP280;9930;49.240;8.548;2024-01-30T09:24:42;101971.38;;;7.70
19568;BMP280;9930;49.240;8.548;2024-01-30T09:27:08;101983.22;;;7.81
19568;BMP280;9930;49.240;8.548;2024-01-30T09:29:37;101985.09;;;7.84
19568;BMP280;9930;49.240;8.548;2024-01-30T09:32:05;101980.34;;;7.88
19568;BMP280;9930;49.240;8.548;2024-01-30T09:34:35;101986.66;;;7.93
19568;BMP280;9930;49.240;8.548;2024-01-30T09:37:00;101970.41;;;7.91
19568;BMP280;9930;49.240;8.548;2024-01-30T09:39:29;101975.06;;;7.97
19568;BMP280;9930;49.240;8.548;2024-01-30T09:42:21;101987.88;;;8.10
19568;BMP280;9930;49.240;8.548;2024-01-30T09:44:51;101984.91;;;8.16
19568;BMP280;9930;49.240;8.548;2024-01-30T09:47:20;101974.84;;;8.17
19568;BMP280;9930;49.240;8.548;2024-01-30T09:49:46;101974.41;;;8.23
19568;BMP280;9930;49.240;8.548;2024-01-30T09:52:14;101981.03;;;8.32
19568;BMP280;9930;49.240;8.548;2024-01-30T09:54:45;101991.31;;;8.46
19568;BMP280;9930;49.240;8.548;2024-01-30T09:57:11;101980.50;;;8.48
19568;BMP280;9930;49.240;8.548;2024-01-30T09:59:42;101995.06;;;8.62
19568;BMP280;9930;49.240;8.548;2024-01-30T10:02:11;101998.25;;;8.71
19568;BMP280;9930;49.240;8.548;2024-01-30T10:04:36;101995.47;;;8.80
19568;BMP280;9930;49.240;8.548;2024-01-30T10:07:05;101993.34;;;8.86
19568;BMP280;9930;49.240;8.548;2024-01-30T10:09:36;102001.06;;;8.99
19568;BMP280;9930;49.240;8.548;2024-01-30T10:12:09;102008.44;;;9.08
19568;BMP280;9930;49.240;8.548;2024-01-30T10:14:39;101991.41;;;9.07
19568;BMP280;9930;49.240;8.548;2024-01-30T10:17:08;102001.66;;;9.20
19568;BMP280;9930;49.240;8.548;2024-01-30T10:19:38;102002.97;;;9.27
19568;BMP280;9930;49.240;8.548;2024-01-30T10:22:09;101984.16;;;9.25
19568;BMP280;9930;49.240;8.548;2024-01-30T10:24:36;101998.47;;;9.36
19568;BMP280;9930;49.240;8.548;2024-01-30T10:27:05;102003.22;;;9.43
19568;BMP280;9930;49.240;8.548;2024-01-30T10:29:34;102006.28;;;9.51
19568;BMP280;9930;49.240;8.548;2024-01-30T10:32:09;102007.47;;;9.56
19568;BMP280;9930;49.240;8.548;2024-01-30T10:34:35;102005.34;;;9.62
19568;BMP280;9930;49.240;8.548;2024-01-30T10:37:12;101993.00;;;9.68
19568;BMP280;9930;49.240;8.548;2024-01-30T10:39:43;101989.97;;;9.73
19568;BMP280;9930;49.240;8.548;2024-01-30T10:42:15;101981.34;;;9.71
19568;BMP280;9930;49.240;8.548;2024-01-30T10:45:13;101986.84;;;9.78
19568;BMP280;9930;49.240;8.548;2024-01-30T10:47:49;101982.56;;;9.90
19568;BMP280;9930;49.240;8.548;2024-01-30T10:50:18;101976.38;;;9.86
19568;BMP280;9930;49.240;8.548;2024-01-30T10:52:45;101971.56;;;9.91
19568;BMP280;9930;49.240;8.548;2024-01-30T10:55:13;101980.69;;;10.00
19568;BMP280;9930;49.240;8.548;2024-01-30T10:57:40;101975.00;;;10.04
19568;BMP280;9930;49.240;8.548;2024-01-30T11:00:10;101980.69;;;10.14
19568;BMP280;9930;49.240;8.548;2024-01-30T11:02:46;101977.78;;;10.21
19568;BMP280;9930;49.240;8.548;2024-01-30T11:05:13;101957.06;;;10.16
19568;BMP280;9930;49.240;8.548;2024-01-30T11:07:41;101978.38;;;10.30
19568;BMP280;9930;49.240;8.548;2024-01-30T11:10:07;101967.50;;;10.32
19568;BMP280;9930;49.240;8.548;2024-01-30T11:12:39;101969.34;;;10.35
19568;BMP280;9930;49.240;8.548;2024-01-30T11:15:14;101962.94;;;10.42
19568;BMP280;9930;49.240;8.548;2024-01-30T11:20:30;101951.03;;;10.55
19568;BMP280;9930;49.240;8.548;2024-01-30T11:22:57;101961.41;;;10.71
19568;BMP280;9930;49.240;8.548;2024-01-30T11:25:25;101953.53;;;10.82
19568;BMP280;9930;49.240;8.548;2024-01-30T11:27:55;101969.78;;;10.97
19568;BMP280;9930;49.240;8.548;2024-01-30T11:30:30;101968.16;;;11.12
19568;BMP280;9930;49.240;8.548;2024-01-30T11:33:06;101968.00;;;11.24
19568;BMP280;9930;49.240;8.548;2024-01-30T11:35:36;101953.94;;;11.30
19568;BMP280;9930;49.240;8.548;2024-01-30T11:38:05;101966.91;;;11.48
19568;BMP280;9930;49.240;8.548;2024-01-30T11:40:37;101957.22;;;11.57
19568;BMP280;9930;49.240;8.548;2024-01-30T11:43:07;101941.78;;;11.56
19568;BMP280;9930;49.240;8.548;2024-01-30T11:45:35;101942.50;;;11.68
19568;BMP280;9930;49.240;8.548;2024-01-30T11:48:05;101930.94;;;11.75
19568;BMP280;9930;49.240;8.548;2024-01-30T11:50:34;101948.06;;;11.90
19568;BMP280;9930;49.240;8.548;2024-01-30T11:53:01;101946.75;;;11.97
19568;BMP280;9930;49.240;8.548;2024-01-30T11:55:30;101944.78;;;12.08
19568;BMP280;9930;49.240;8.548;2024-01-30T11:57:57;101925.38;;;12.11
19568;BMP280;9930;49.240;8.548;2024-01-30T12:00:26;101934.06;;;12.29
19568;BMP280;9930;49.240;8.548;2024-01-30T12:02:56;101926.81;;;12.37
19568;BMP280;9930;49.240;8.548;2024-01-30T12:05:28;101923.78;;;12.44
19568;BMP280;9930;49.240;8.548;2024-01-30T12:07:56;101911.41;;;12.52
19568;BMP280;9930;49.240;8.548;2024-01-30T12:10:25;101889.97;;;12.50
19568;BMP280;9930;49.240;8.548;2024-01-30T12:12:52;101901.88;;;12.65
19568;BMP280;9930;49.240;8.548;2024-01-30T12:15:22;101890.69;;;12.63
19568;BMP280;9930;49.240;8.548;2024-01-30T12:17:48;101903.25;;;12.75
19568;BMP280;9930;49.240;8.548;2024-01-30T12:20:19;101884.38;;;12.73
19568;BMP280;9930;49.240;8.548;2024-01-30T12:22:48;101895.09;;;12.82
19568;BMP280;9930;49.240;8.548;2024-01-30T12:25:17;101877.47;;;12.88
19568;BMP280;9930;49.240;8.548;2024-01-30T12:27:48;101878.59;;;12.93
19568;BMP280;9930;49.240;8.548;2024-01-30T12:30:21;101885.78;;;13.01
19568;BMP280;9930;49.240;8.548;2024-01-30T12:32:49;101865.06;;;12.96
19568;BMP280;9930;49.240;8.548;2024-01-30T12:35:20;101884.66;;;13.12
19568;BMP280;9930;49.240;8.548;2024-01-30T12:37:47;101889.25;;;13.17
19568;BMP280;9930;49.240;8.548;2024-01-30T12:40:19;101874.75;;;13.18
19568;BMP280;9930;49.240;8.548;2024-01-30T12:42:49;101879.53;;;13.28
19568;BMP280;9930;49.240;8.548;2024-01-30T12:45:15;101873.38;;;13.24
19568;BMP280;9930;49.240;8.548;2024-01-30T12:47:42;101879.75;;;13.33
19568;BMP280;9930;49.240;8.548;2024-01-30T12:50:07;101883.50;;;13.39
19568;BMP280;9930;49.240;8.548;2024-01-30T12:52:35;101869.00;;;13.40
19568;BMP280;9930;49.240;8.548;2024-01-30T12:55:04;101884.78;;;13.47
19568;BMP280;9930;49.240;8.548;2024-01-30T12:57:36;101876.44;;;13.51
19568;BMP280;9930;49.240;8.548;2024-01-30T13:00:05;101885.16;;;13.55
19568;BMP280;9930;49.240;8.548;2024-01-30T13:02:35;101885.38;;;13.59
19568;BMP280;9930;49.240;8.548;2024-01-30T13:05:05;101885.53;;;13.63
19568;BMP280;9930;49.240;8.548;2024-01-30T13:07:34;101883.03;;;13.64
19568;BMP280;9930;49.240;8.548;2024-01-30T13:10:04;101862.53;;;13.64
19568;BMP280;9930;49.240;8.548;2024-01-30T13:12:30;101843.41;;;13.57
19568;BMP280;9930;49.240;8.548;2024-01-30T13:14:58;101867.28;;;13.74
19568;BMP280;9930;49.240;8.548;2024-01-30T13:17:27;101854.09;;;13.67
19568;BMP280;9930;49.240;8.548;2024-01-30T13:19:55;101880.53;;;13.83
19568;BMP280;9930;49.240;8.548;2024-01-30T13:22:21;101872.94;;;13.85
19568;BMP280;9930;49.240;8.548;2024-01-30T13:24:50;101885.97;;;13.89
19568;BMP280;9930;49.240;8.548;2024-01-30T13:27:18;101877.47;;;13.90
19568;BMP280;9930;49.240;8.548;2024-01-30T13:29:43;101887.81;;;13.92
19568;BMP280;9930;49.240;8.548;2024-01-30T13:32:09;101880.03;;;13.90
19568;BMP280;9930;49.240;8.548;2024-01-30T13:34:36;101880.03;;;13.90
19568;BMP280;9930;49.240;8.548;2024-01-30T13:37:04;101881.78;;;13.91
19568;BMP280;9930;49.240;8.548;2024-01-30T13:39:30;101885.16;;;13.90
19568;BMP280;9930;49.240;8.548;2024-01-30T13:42:01;101887.66;;;13.89
19568;BMP280;9930;49.240;8.548;2024-01-30T13:44:26;101888.47;;;13.88
19568;BMP280;9930;49.240;8.548;2024-01-30T13:46:55;101879.66;;;13.83
19568;BMP280;9930;49.240;8.548;2024-01-30T13:49:23;101896.97;;;13.87
19568;BMP280;9930;49.240;8.548;2024-01-30T13:51:50;101879.44;;;13.78
19568;BMP280;9930;49.240;8.548;2024-01-30T13:54:16;101880.25;;;13.77
19568;BMP280;9930;49.240;8.548;2024-01-30T13:56:44;101883.19;;;13.85
19568;BMP280;9930;49.240;8.548;2024-01-30T13:59:09;101881.50;;;13.85
19568;BMP280;9930;49.240;8.548;2024-01-30T14:01:37;101878.94;;;13.85
19568;BMP280;9930;49.240;8.548;2024-01-30T14:04:03;101878.94;;;13.85
19568;BMP280;9930;49.240;8.548;2024-01-30T14:06:29;101877.25;;;13.86
19568;BMP280;9930;49.240;8.548;2024-01-30T14:08:55;101878.94;;;13.85
19568;BMP280;9930;49.240;8.548;2024-01-30T14:11:24;101868.81;;;13.88
19568;BMP280;9930;49.240;8.548;2024-01-30T14:13:50;101882.44;;;13.87
19568;BMP280;9930;49.240;8.548;2024-01-30T14:16:18;101874.69;;;13.86
19568;BMP280;9930;49.240;8.548;2024-01-30T14:18:43;101885.97;;;13.89
19568;BMP280;9930;49.240;8.548;2024-01-30T14:21:11;101879.09;;;13.88
19568;BMP280;9930;49.240;8.548;2024-01-30T14:23:40;101869.25;;;13.80
19568;BMP280;9930;49.240;8.548;2024-01-30T14:26:08;101894.47;;;13.88